METAR Data
IDs: Format: Raw Decoded Include TAF

Data at: 1021 UTC 28 Sep 2021

KMYL 280951Z AUTO A2983 RMK AO2 SLPNO PWINO $

KMYL 280700Z 2807/2906 29008KT P6SM BKN100
  FM280800 28012KT 6SM -RA BR OVC050
  FM281000 32012G20KT 3SM -RA BR OVC015
  FM281800 28010KT P6SM -SHRA BKN030
  FM290000 31008KT P6SM SCT040 AMD NOT SKED